createdAt,value
2023-04-10T00:00:14.475Z,101654.88
2023-04-10T00:02:42.798Z,101665.00
2023-04-10T00:05:10.399Z,101745.06
2023-04-10T00:07:37.618Z,101716.72
2023-04-10T00:10:04.808Z,101631.69
2023-04-10T00:12:31.897Z,101702.47
2023-04-10T00:14:59.326Z,101612.47
2023-04-10T00:17:26.311Z,101657.03
2023-04-10T00:19:53.166Z,101709.50
2023-04-10T00:22:47.481Z,101748.22
2023-04-10T00:25:27.931Z,101726.16
2023-04-10T00:27:54.890Z,101735.63
2023-04-10T00:30:21.938Z,101687.38
2023-04-10T00:32:49.241Z,101725.06
2023-04-10T00:35:16.330Z,101626.91
2023-04-10T00:37:43.220Z,101676.59
2023-04-10T00:40:10.842Z,101724.34
2023-04-10T00:42:37.786Z,101628.19
2023-04-10T00:45:05.079Z,101705.22
2023-04-10T00:47:32.711Z,101607.31
2023-04-10T00:50:13.361Z,101650.69
2023-04-10T00:53:14.351Z,101687.16
2023-04-10T00:55:42.393Z,101703.31
2023-04-10T00:58:13.682Z,101694.50
2023-04-10T01:00:43.895Z,101655.50
2023-04-10T01:03:13.377Z,101657.69
2023-04-10T01:06:10.457Z,101717.41
2023-04-10T01:09:16.388Z,101641.38
2023-04-10T01:12:12.825Z,101700.75
2023-04-10T01:14:58.545Z,101722.53
2023-04-10T01:17:34.399Z,101724.16
2023-04-10T01:20:26.417Z,101720.50
2023-04-10T01:23:21.394Z,101717.19
2023-04-10T01:25:57.375Z,101636.75
2023-04-10T01:29:06.243Z,101722.41
2023-04-10T01:31:39.082Z,101720.06
2023-04-10T01:34:09.676Z,101719.88
2023-04-10T01:36:47.586Z,101724.19
2023-04-10T01:39:18.296Z,101685.03
2023-04-10T01:41:47.118Z,101631.50
2023-04-10T01:44:16.143Z,101719.59
2023-04-10T01:46:44.814Z,101612.16
2023-04-10T01:49:13.394Z,101680.44
2023-04-10T01:51:58.386Z,101685.81
2023-04-10T01:54:39.267Z,101701.22
2023-04-10T01:57:06.636Z,101640.28
2023-04-10T01:59:41.420Z,101680.88
2023-04-10T02:02:11.888Z,101660.84
2023-04-10T02:04:39.570Z,101705.38
2023-04-10T02:07:09.093Z,101737.09
2023-04-10T02:09:48.925Z,101739.13
2023-04-10T02:12:26.760Z,101674.00
2023-04-10T02:15:01.500Z,101733.94
2023-04-10T02:17:31.606Z,101709.56
2023-04-10T02:20:13.449Z,101734.50
2023-04-10T02:23:14.444Z,101696.69
2023-04-10T02:26:21.438Z,101747.03
2023-04-10T02:28:55.943Z,101640.56
2023-04-10T02:31:24.690Z,101742.06
2023-04-10T02:33:52.112Z,101699.84
2023-04-10T02:36:19.340Z,101624.09
2023-04-10T02:38:46.399Z,101687.19
2023-04-10T02:41:13.781Z,101663.63
2023-04-10T02:43:41.844Z,101634.16
2023-04-10T02:46:08.785Z,101717.03
2023-04-10T02:48:39.219Z,101584.03
2023-04-10T02:51:26.408Z,101716.25
2023-04-10T02:54:07.037Z,101715.63
2023-04-10T02:56:35.249Z,101714.34
2023-04-10T02:59:02.664Z,101589.03
2023-04-10T03:01:31.219Z,101717.22
2023-04-10T03:03:59.382Z,101673.91
2023-04-10T03:06:30.711Z,101710.03
2023-04-10T03:08:58.423Z,101567.81
2023-04-10T03:11:27.232Z,101646.16
2023-04-10T03:13:54.475Z,101656.28
2023-04-10T03:16:21.807Z,101674.53
2023-04-10T03:18:48.933Z,101660.09
2023-04-10T03:21:36.448Z,101706.31
2023-04-10T03:24:17.632Z,101720.31
2023-04-10T03:26:44.987Z,101701.13
2023-04-10T03:29:12.482Z,101755.91
2023-04-10T03:31:40.988Z,101748.81
2023-04-10T03:34:08.218Z,101693.34
2023-04-10T03:36:35.363Z,101674.88
2023-04-10T03:39:02.344Z,101678.47
2023-04-10T03:41:31.093Z,101662.59
2023-04-10T03:43:58.198Z,101724.25
2023-04-10T03:46:25.217Z,101733.38
2023-04-10T03:48:54.209Z,101685.59
2023-04-10T03:51:23.509Z,101736.16
2023-04-10T03:53:51.544Z,101727.16
2023-04-10T03:56:19.064Z,101746.22
2023-04-10T03:58:47.141Z,101628.16
2023-04-10T04:01:27.635Z,101709.53
2023-04-10T04:04:26.617Z,101639.25
2023-04-10T04:07:45.532Z,101696.34
2023-04-10T04:10:42.985Z,101689.59
2023-04-10T04:13:24.373Z,101720.47
2023-04-10T04:16:05.715Z,101756.94
2023-04-10T04:18:52.868Z,101762.81
2023-04-10T04:21:56.473Z,101747.53
2023-04-10T04:25:10.823Z,101754.53
2023-04-10T04:27:58.046Z,101730.41
2023-04-10T04:30:39.511Z,101710.50
2023-04-10T04:33:26.701Z,101696.34
2023-04-10T04:36:09.072Z,101780.31
2023-04-10T04:38:55.488Z,101761.38
2023-04-10T04:41:32.675Z,101750.28
2023-04-10T04:44:11.797Z,101764.59
2023-04-10T04:47:11.034Z,101747.50
2023-04-10T04:49:56.991Z,101781.72
2023-04-10T04:52:41.836Z,101770.00
2023-04-10T04:55:32.602Z,101782.69
2023-04-10T04:58:21.168Z,101803.19
2023-04-10T05:01:28.585Z,101813.59
2023-04-10T05:04:25.318Z,101789.91
2023-04-10T05:07:07.872Z,101730.13
2023-04-10T05:09:53.085Z,101784.44
2023-04-10T05:12:55.427Z,101810.31
2023-04-10T05:15:42.693Z,101731.47
2023-04-10T05:18:19.922Z,101756.84
2023-04-10T05:21:34.585Z,101804.66
2023-04-10T05:24:57.633Z,101825.38
2023-04-10T05:28:07.455Z,101806.59
2023-04-10T05:31:12.478Z,101736.53
2023-04-10T05:33:50.546Z,101772.44
2023-04-10T05:36:37.720Z,101857.72
2023-04-10T05:39:10.085Z,101828.00
2023-04-10T05:42:15.567Z,101823.13
2023-04-10T05:44:52.889Z,101826.53
2023-04-10T05:47:36.541Z,101827.47
2023-04-10T05:50:19.161Z,101811.50
2023-04-10T05:53:04.497Z,101806.13
2023-04-10T05:55:43.919Z,101821.81
2023-04-10T05:58:38.850Z,101842.91
2023-04-10T06:01:53.519Z,101856.13
2023-04-10T06:04:34.290Z,101836.81
2023-04-10T06:07:02.161Z,101849.84
2023-04-10T06:09:32.348Z,101843.19
2023-04-10T06:12:01.510Z,101860.44
2023-04-10T06:14:28.714Z,101857.47
2023-04-10T06:16:57.122Z,101795.31
2023-04-10T06:19:24.059Z,101773.47
2023-04-10T06:22:12.556Z,101864.84
2023-04-10T06:24:53.141Z,101856.97
2023-04-10T06:27:21.069Z,101807.91
2023-04-10T06:29:47.933Z,101850.91
2023-04-10T06:32:17.043Z,101820.13
2023-04-10T06:34:44.781Z,101849.94
2023-04-10T06:37:11.998Z,101879.13
2023-04-10T06:39:39.569Z,101705.44
2023-04-10T06:42:06.598Z,101792.84
2023-04-10T06:44:53.458Z,101820.13
2023-04-10T06:47:20.570Z,101846.38
2023-04-10T06:49:47.518Z,101776.00
2023-04-10T06:52:14.700Z,101806.88
2023-04-10T06:54:41.608Z,101817.34
2023-04-10T06:57:08.603Z,101853.09
2023-04-10T06:59:55.601Z,101870.41
2023-04-10T07:02:56.606Z,101790.03
2023-04-10T07:05:57.561Z,101825.16
2023-04-10T07:08:58.613Z,101876.28
2023-04-10T07:11:35.059Z,101829.44
2023-04-10T07:14:02.189Z,101876.31
2023-04-10T07:16:29.568Z,101872.25
2023-04-10T07:18:56.990Z,101851.66
2023-04-10T07:21:44.585Z,101840.28
2023-04-10T07:24:25.097Z,101801.47
2023-04-10T07:26:52.273Z,101812.00
2023-04-10T07:29:20.394Z,101846.78
2023-04-10T07:31:47.401Z,101816.28
2023-04-10T07:34:14.437Z,101846.81
2023-04-10T07:36:41.370Z,101853.19
2023-04-10T07:39:08.394Z,101872.97
2023-04-10T07:41:35.942Z,101885.59
2023-04-10T07:44:02.872Z,101859.53
2023-04-10T07:46:29.863Z,101889.41
2023-04-10T07:48:56.902Z,101880.38
2023-04-10T07:51:23.838Z,101880.44
2023-04-10T07:53:50.755Z,101890.44
2023-04-10T07:56:21.520Z,101897.09
2023-04-10T07:58:49.158Z,101839.72
2023-04-10T08:01:36.622Z,101855.69
2023-04-10T08:04:17.420Z,101886.16
2023-04-10T08:06:44.413Z,101914.44
2023-04-10T08:09:11.411Z,101879.03
2023-04-10T08:11:38.696Z,101867.22
2023-04-10T08:14:07.188Z,101896.34
2023-04-10T08:16:36.442Z,101788.19
2023-04-10T08:19:03.835Z,101850.00
2023-04-10T08:21:50.693Z,101899.69
2023-04-10T08:24:51.627Z,101808.78
2023-04-10T08:27:32.264Z,101856.25
2023-04-10T08:29:59.127Z,101829.63
2023-04-10T08:32:26.738Z,101824.56
2023-04-10T08:34:53.708Z,101889.09
2023-04-10T08:37:21.575Z,101898.25
2023-04-10T08:39:48.665Z,101849.81
2023-04-10T08:42:15.626Z,101906.00
2023-04-10T08:44:42.580Z,101883.38
2023-04-10T08:47:10.768Z,101868.91
2023-04-10T08:50:06.652Z,101880.25
2023-04-10T08:52:51.948Z,101897.50
2023-04-10T08:55:20.501Z,101907.22
2023-04-10T08:57:54.283Z,101904.44
2023-04-10T09:00:49.654Z,101884.69
2023-04-10T09:03:31.176Z,101877.47
2023-04-10T09:06:02.257Z,101902.94
2023-04-10T09:08:49.653Z,101915.41
2023-04-10T09:11:52.070Z,101905.19
2023-04-10T09:14:23.929Z,101823.63
2023-04-10T09:16:53.826Z,101804.66
2023-04-10T09:19:31.367Z,101905.16
2023-04-10T09:22:18.730Z,101846.00
2023-04-10T09:25:00.975Z,101901.16
2023-04-10T09:27:33.714Z,101899.13
2023-04-10T09:30:01.953Z,101854.31
2023-04-10T09:32:49.321Z,101864.34
2023-04-10T09:35:16.218Z,101878.88
2023-04-10T09:37:45.928Z,101887.81
2023-04-10T09:40:25.956Z,101862.59
2023-04-10T09:42:56.053Z,101892.78
2023-04-10T09:46:00.603Z,101871.38
2023-04-10T09:49:11.958Z,101885.47
2023-04-10T09:51:52.282Z,101854.25
2023-04-10T09:54:19.214Z,101838.84
2023-04-10T09:57:07.676Z,101872.59
2023-04-10T10:00:15.659Z,101859.53
2023-04-10T10:03:14.926Z,101846.72
2023-04-10T10:05:50.728Z,101877.16
2023-04-10T10:08:17.879Z,101868.75
2023-04-10T10:10:47.804Z,101865.91
2023-04-10T10:13:43.795Z,101848.34
2023-04-10T10:16:48.725Z,101869.47
2023-04-10T10:19:39.177Z,101798.03
2023-04-10T10:22:27.676Z,101809.06
2023-04-10T10:25:09.630Z,101819.94
2023-04-10T10:27:40.756Z,101827.81
2023-04-10T10:30:25.314Z,101848.56
2023-04-10T10:32:56.591Z,101832.25
2023-04-10T10:35:25.990Z,101819.72
2023-04-10T10:37:55.243Z,101789.28
2023-04-10T10:40:27.815Z,101794.56
2023-04-10T10:43:18.651Z,101846.91
2023-04-10T10:45:52.578Z,101848.38
2023-04-10T10:48:39.704Z,101850.69
2023-04-10T10:52:02.782Z,101794.09
2023-04-10T10:54:53.628Z,101817.19
2023-04-10T10:58:08.786Z,101817.66
2023-04-10T11:01:12.759Z,101827.16
2023-04-10T11:03:53.536Z,101827.75
2023-04-10T11:06:22.193Z,101823.63
2023-04-10T11:09:09.700Z,101764.34
2023-04-10T11:11:59.590Z,101808.84
2023-04-10T11:14:27.138Z,101798.41
2023-04-10T11:16:54.095Z,101754.50
2023-04-10T11:19:23.564Z,101812.66
2023-04-10T11:22:14.702Z,101822.34
2023-04-10T11:25:00.444Z,101812.09
2023-04-10T11:27:45.966Z,101762.75
2023-04-10T11:30:29.237Z,101790.50
2023-04-10T11:32:56.545Z,101806.88
2023-04-10T11:35:23.719Z,101768.88
2023-04-10T11:37:51.797Z,101772.88
2023-04-10T11:40:18.784Z,101666.31
2023-04-10T11:42:45.701Z,101751.69
2023-04-10T11:45:39.778Z,101778.94
2023-04-10T11:48:20.533Z,101752.28
2023-04-10T11:50:47.421Z,101747.19
2023-04-10T11:53:19.882Z,101748.63
2023-04-10T11:55:47.229Z,101735.31
2023-04-10T11:58:38.762Z,101753.03
2023-04-10T12:01:42.509Z,101739.16
2023-04-10T12:04:43.917Z,101690.94
2023-04-10T12:07:27.487Z,101752.59
2023-04-10T12:09:58.319Z,101740.88
2023-04-10T12:12:36.932Z,101746.59
2023-04-10T12:15:04.504Z,101632.97
2023-04-10T12:17:32.293Z,101702.75
2023-04-10T12:20:19.765Z,101665.28
2023-04-10T12:23:08.542Z,101713.28
2023-04-10T12:25:35.693Z,101717.09
2023-04-10T12:28:02.612Z,101725.16
2023-04-10T12:30:29.540Z,101727.16
2023-04-10T12:32:57.653Z,101636.91
2023-04-10T12:35:42.665Z,101734.16
2023-04-10T12:38:09.612Z,101728.38
2023-04-10T12:40:38.510Z,101661.34
2023-04-10T12:43:05.506Z,101687.25
2023-04-10T12:45:43.630Z,101724.81
2023-04-10T12:48:10.723Z,101677.72
2023-04-10T12:50:47.990Z,101725.22
2023-04-10T12:53:15.194Z,101634.50
2023-04-10T12:55:43.179Z,101695.78
2023-04-10T12:58:34.868Z,101712.94
2023-04-10T13:01:35.846Z,101666.09
2023-04-10T13:04:16.837Z,101649.63
2023-04-10T13:06:44.680Z,101691.25
2023-04-10T13:09:31.757Z,101702.31
2023-04-10T13:12:25.764Z,101668.03
2023-04-10T13:15:07.906Z,101703.75
2023-04-10T13:17:35.842Z,101712.00
2023-04-10T13:20:25.767Z,101698.28
2023-04-10T13:23:26.835Z,101680.03
2023-04-10T13:26:07.385Z,101673.75
2023-04-10T13:28:54.906Z,101620.44
2023-04-10T13:31:56.009Z,101659.81
2023-04-10T13:34:55.358Z,101675.38
2023-04-10T13:37:22.255Z,101683.97
2023-04-10T13:39:49.127Z,101620.22
2023-04-10T13:42:16.021Z,101687.09
2023-04-10T13:44:43.032Z,101667.47
2023-04-10T13:47:10.044Z,101592.34
2023-04-10T13:49:37.021Z,101619.38
2023-04-10T13:52:04.012Z,101643.41
2023-04-10T13:54:30.909Z,101572.81
2023-04-10T13:57:17.833Z,101631.50
2023-04-10T14:00:19.809Z,101611.09
2023-04-10T14:03:20.855Z,101614.81
2023-04-10T14:06:01.497Z,101621.19
2023-04-10T14:08:48.858Z,101628.50
2023-04-10T14:11:29.411Z,101608.41
2023-04-10T14:13:56.412Z,101603.94
2023-04-10T14:16:23.399Z,101550.03
2023-04-10T14:18:50.356Z,101599.13
2023-04-10T14:21:37.829Z,101612.88
2023-04-10T14:24:38.826Z,101606.91
2023-04-10T14:27:19.568Z,101560.34
2023-04-10T14:30:06.884Z,101594.16
2023-04-10T14:32:47.579Z,101570.72
2023-04-10T14:35:14.494Z,101543.00
2023-04-10T14:37:41.408Z,101608.31
2023-04-10T14:40:08.958Z,101574.13
2023-04-10T14:42:36.216Z,101578.06
2023-04-10T14:45:03.213Z,101614.66
2023-04-10T14:47:30.196Z,101579.81
2023-04-10T14:49:57.099Z,101541.19
2023-04-10T14:52:24.229Z,101535.22
2023-04-10T14:54:51.075Z,101553.47
2023-04-10T14:57:18.060Z,101580.38
2023-04-10T15:00:04.930Z,101582.66
2023-04-10T15:02:45.855Z,101523.63
2023-04-10T15:05:13.252Z,101534.91
2023-04-10T15:07:40.173Z,101525.84
2023-04-10T15:10:07.715Z,101567.66
2023-04-10T15:12:34.655Z,101528.06
2023-04-10T15:15:01.759Z,101509.81
2023-04-10T15:17:29.872Z,101543.59
2023-04-10T15:20:16.880Z,101559.06
2023-04-10T15:23:11.695Z,101549.63
2023-04-10T15:25:58.867Z,101516.75
2023-04-10T15:28:59.879Z,101504.97
2023-04-10T15:32:00.873Z,101511.22
2023-04-10T15:34:41.551Z,101517.47
2023-04-10T15:37:08.478Z,101529.25
2023-04-10T15:39:37.294Z,101460.34
2023-04-10T15:42:06.117Z,101510.66
2023-04-10T15:44:33.134Z,101509.59
2023-04-10T15:47:00.194Z,101553.84
2023-04-10T15:49:37.155Z,101571.78
2023-04-10T15:52:06.742Z,101500.34
2023-04-10T15:54:39.186Z,101491.16
2023-04-10T15:57:06.203Z,101573.38
2023-04-10T15:59:52.897Z,101521.84
2023-04-10T16:02:33.718Z,101512.91
2023-04-10T16:05:01.144Z,101512.16
2023-04-10T16:07:28.138Z,101554.94
2023-04-10T16:10:15.939Z,101574.31
2023-04-10T16:12:56.726Z,101549.16
2023-04-10T16:15:23.721Z,101526.03
2023-04-10T16:17:50.759Z,101512.63
2023-04-10T16:20:37.917Z,101523.97
2023-04-10T16:23:38.878Z,101535.34
2023-04-10T16:26:33.003Z,101498.78
2023-04-10T16:29:26.902Z,101537.41
2023-04-10T16:32:07.615Z,101550.00
2023-04-10T16:34:54.987Z,101559.63
2023-04-10T16:37:55.920Z,101555.56
2023-04-10T16:40:36.462Z,101535.69
2023-04-10T16:43:03.533Z,101579.97
2023-04-10T16:45:30.616Z,101494.78
2023-04-10T16:47:57.654Z,101506.69
2023-04-10T16:50:24.700Z,101563.88
2023-04-10T16:52:51.722Z,101518.44
2023-04-10T16:55:18.814Z,101510.25
2023-04-10T16:58:05.966Z,101506.38
2023-04-10T17:01:06.995Z,101564.19
2023-04-10T17:03:48.571Z,101547.09
2023-04-10T17:06:16.319Z,101554.19
2023-04-10T17:08:43.877Z,101551.44
2023-04-10T17:11:12.710Z,101551.50
2023-04-10T17:13:42.927Z,101541.75
2023-04-10T17:16:10.266Z,101481.84
2023-04-10T17:18:37.370Z,101538.59
2023-04-10T17:21:27.915Z,101496.72
2023-04-10T17:24:08.480Z,101520.69
2023-04-10T17:26:35.597Z,101463.09
2023-04-10T17:29:02.507Z,101534.66
2023-04-10T17:31:29.509Z,101489.97
2023-04-10T17:33:56.442Z,101518.16
2023-04-10T17:36:23.437Z,101434.09
2023-04-10T17:38:53.664Z,101507.81
2023-04-10T17:41:21.089Z,101493.38
2023-04-10T17:43:48.603Z,101492.28
2023-04-10T17:46:15.795Z,101513.81
2023-04-10T17:48:44.125Z,101417.31
2023-04-10T17:51:11.651Z,101526.47
2023-04-10T17:53:38.541Z,101531.91
2023-04-10T17:56:05.907Z,101534.34
2023-04-10T17:58:53.107Z,101517.03
2023-04-10T18:01:54.036Z,101544.34
2023-04-10T18:04:54.947Z,101501.13
2023-04-10T18:07:35.494Z,101498.16
2023-04-10T18:10:23.982Z,101550.53
2023-04-10T18:13:04.660Z,101536.66
2023-04-10T18:15:32.073Z,101572.91
2023-04-10T18:17:59.095Z,101530.63
2023-04-10T18:20:45.976Z,101530.50
2023-04-10T18:23:40.357Z,101549.50
2023-04-10T18:26:29.399Z,101580.28
2023-04-10T18:28:56.617Z,101456.41
2023-04-10T18:31:23.757Z,101558.97
2023-04-10T18:34:03.748Z,101594.78
2023-04-10T18:36:34.564Z,101533.84
2023-04-10T18:39:01.684Z,101583.78
2023-04-10T18:41:28.722Z,101573.31
2023-04-10T18:44:04.022Z,101575.47
2023-04-10T18:46:32.681Z,101473.97
2023-04-10T18:49:01.294Z,101591.63
2023-04-10T18:51:28.688Z,101528.16
2023-04-10T18:53:55.976Z,101608.47
2023-04-10T18:56:23.126Z,101587.97
2023-04-10T18:59:10.006Z,101596.31
2023-04-10T19:01:50.934Z,101545.03
2023-04-10T19:04:18.080Z,101518.19
2023-04-10T19:06:46.341Z,101571.31
2023-04-10T19:09:13.976Z,101553.47
2023-04-10T19:11:41.221Z,101597.59
2023-04-10T19:14:08.369Z,101495.19
2023-04-10T19:16:35.576Z,101526.22
2023-04-10T19:19:02.856Z,101494.53
2023-04-10T19:21:50.042Z,101513.88
2023-04-10T19:24:50.999Z,101532.31
2023-04-10T19:27:31.557Z,101538.41
2023-04-10T19:29:58.555Z,101589.81
2023-04-10T19:32:25.608Z,101598.97
2023-04-10T19:34:53.457Z,101524.97
2023-04-10T19:37:40.061Z,101517.44
2023-04-10T19:40:20.593Z,101570.44
2023-04-10T19:42:47.700Z,101599.16
2023-04-10T19:45:15.511Z,101595.50
2023-04-10T19:47:42.488Z,101545.75
2023-04-10T19:50:09.756Z,101528.78
2023-04-10T19:52:36.644Z,101558.78
2023-04-10T19:55:03.825Z,101594.06
2023-04-10T19:57:51.050Z,101572.28
2023-04-10T20:00:38.808Z,101555.16
2023-04-10T20:03:05.751Z,101577.50
2023-04-10T20:05:53.045Z,101558.13
2023-04-10T20:08:35.786Z,101494.25
2023-04-10T20:11:06.418Z,101539.22
2023-04-10T20:13:34.783Z,101556.84
2023-04-10T20:16:02.447Z,101530.78
2023-04-10T20:18:31.517Z,101483.53
2023-04-10T20:21:19.071Z,101510.09
2023-04-10T20:23:59.901Z,101535.38
2023-04-10T20:26:26.876Z,101524.41
2023-04-10T20:28:54.672Z,101538.34
2023-04-10T20:31:21.820Z,101472.81
2023-04-10T20:33:48.741Z,101556.09
2023-04-10T20:36:15.823Z,101537.69
2023-04-10T20:38:42.776Z,101518.09
2023-04-10T20:41:09.722Z,101475.44
2023-04-10T20:43:36.686Z,101600.72
2023-04-10T20:46:08.204Z,101596.50
2023-04-10T20:48:38.526Z,101521.91
2023-04-10T20:51:06.084Z,101550.16
2023-04-10T20:53:33.834Z,101611.31
2023-04-10T20:56:00.843Z,101570.06
2023-04-10T20:58:48.073Z,101574.31
2023-04-10T21:01:49.189Z,101593.50
2023-04-10T21:04:29.865Z,101472.19
2023-04-10T21:07:17.068Z,101576.31
2023-04-10T21:09:57.785Z,101573.13
2023-04-10T21:12:24.690Z,101602.31
2023-04-10T21:14:51.684Z,101464.09
2023-04-10T21:17:19.603Z,101567.34
2023-04-10T21:19:46.597Z,101499.00
2023-04-10T21:22:35.117Z,101543.59
2023-04-10T21:25:15.719Z,101592.50
2023-04-10T21:27:42.743Z,101460.72
2023-04-10T21:30:09.898Z,101557.09
2023-04-10T21:32:37.110Z,101546.84
2023-04-10T21:35:04.212Z,101542.84
2023-04-10T21:37:51.161Z,101491.06
2023-04-10T21:40:52.113Z,101524.22
2023-04-10T21:43:33.228Z,101500.50
2023-04-10T21:46:02.655Z,101498.34
2023-04-10T21:48:30.039Z,101543.41
2023-04-10T21:50:56.894Z,101465.13
2023-04-10T21:53:44.105Z,101538.06
2023-04-10T21:56:24.675Z,101510.34
2023-04-10T21:58:53.050Z,101447.88
2023-04-10T22:01:20.247Z,101511.16
2023-04-10T22:03:47.327Z,101555.44
2023-04-10T22:06:14.550Z,101427.94
2023-04-10T22:08:41.518Z,101440.94
2023-04-10T22:11:08.631Z,101425.00
2023-04-10T22:13:35.507Z,101516.91
2023-04-10T22:16:02.689Z,101544.47
2023-04-10T22:18:29.731Z,101498.75
2023-04-10T22:21:17.108Z,101525.06
2023-04-10T22:24:18.264Z,101469.47
2023-04-10T22:26:59.045Z,101469.66
2023-04-10T22:29:26.120Z,101528.63
2023-04-10T22:31:53.213Z,101477.78
2023-04-10T22:34:20.151Z,101430.72
2023-04-10T22:37:07.132Z,101398.16
2023-04-10T22:39:47.778Z,101486.78
2023-04-10T22:42:14.817Z,101478.28
2023-04-10T22:44:41.809Z,101540.28
2023-04-10T22:47:29.113Z,101529.06
2023-04-10T22:50:16.617Z,101540.91
2023-04-10T22:53:03.158Z,101469.06
2023-04-10T22:55:43.704Z,101496.00
2023-04-10T22:58:10.831Z,101441.03
2023-04-10T23:00:37.920Z,101516.94
2023-04-10T23:03:04.982Z,101512.53
2023-04-10T23:05:52.259Z,101511.59
2023-04-10T23:08:32.954Z,101513.47
2023-04-10T23:10:59.853Z,101477.94
2023-04-10T23:13:26.847Z,101459.22
2023-04-10T23:15:55.382Z,101496.94
2023-04-10T23:18:22.997Z,101536.28
2023-04-10T23:21:10.155Z,101505.03
2023-04-10T23:23:50.681Z,101499.25
2023-04-10T23:26:17.549Z,101454.75
2023-04-10T23:28:44.431Z,101437.91
2023-04-10T23:31:11.310Z,101463.38
2023-04-10T23:33:38.365Z,101488.41
2023-04-10T23:36:06.509Z,101493.84
2023-04-10T23:38:53.595Z,101466.56
2023-04-10T23:41:54.170Z,101455.00
2023-04-10T23:44:34.693Z,101462.56
2023-04-10T23:47:01.734Z,101407.28
2023-04-10T23:49:28.927Z,101460.84
2023-04-10T23:52:16.153Z,101462.59
2023-04-10T23:54:56.854Z,101442.47
2023-04-10T23:57:24.066Z,101366.75
2023-04-10T23:59:51.839Z,101427.13
